Airfield :
LOGIN :

Register | Disclaimer

   EN    FR    IT 

 










Legend :    VFR   Marginal VFR   IFR   Intensive IFR   Very Intensive IFR
Visi :
Ceiling :
>= 8 km
>= 3000ft
5 to 8 km
1000 to 3000 ft
1500m to 5 km
500 to 1000 ft
800 to 1500m
200 to 500 ft
< 800m
< 200 ft
Symbols :   Thunderstorms  Fog  Heavy snow  Heavy precipitations  Wind > 20 kt
SIGMETs :     Misc.  Thunderstorms  Icing  Turbulence  Mountain Waves  Volcanic Ashes






- Airport Elevation : 19 ft
- IATA code : VTS


EVVA - Ventspils Int.

CURRENT METAR :
  • 270720Z AUTO VRB03KT CAVOK 10/10 Q1028

EXPIRED METARs :
  • 270650Z AUTO 13003KT CAVOK 09/09 Q1027
  • 270620Z AUTO 00000KT 9000 NSC 07/07 Q1027
  • 270550Z AUTO 00000KT 0300 FG NSC 04/04 Q1027
  • 270520Z AUTO 01001KT 0200 FG NSC 02/02 Q1027
  • 270450Z AUTO 00000KT 0250 FG NSC 02/02 Q1027

TAF TAF EVVA
Valid from the 27 at 06:00 until the 27 at 15:00 UTC


270504Z 2706/2715 11007KT CAVOK
TEMPO 2706/2707 0500 FG



MET'MAP, your aeronautical weather chart ! - Copyright ORBIFLY December 2007 - Disclaimer

ORBIFLY MET'MAP TEAM :

Programming & Development : Alexandra Zaïnal
Concept & original design : Baudouin d'Aumeries
Assistance for programming : Marc-Olivier Méhu
Technical & hardware support : Manuel Goepfert

Contact : metmap@orbifly.com




SOURCES & CREDITS :

   NOAA